sensor_id;sensor_type;location;lat;lon;timestamp;P1;durP1;ratioP1;P2;durP2;ratioP2
11970;SDS011;6045;42.682;23.294;2022-08-11T00:01:38;6.13;;;5.53;;
11970;SDS011;6045;42.682;23.294;2022-08-11T00:04:11;5.40;;;4.80;;
11970;SDS011;6045;42.682;23.294;2022-08-11T00:06:39;5.45;;;4.95;;
11970;SDS011;6045;42.682;23.294;2022-08-11T00:09:08;5.50;;;5.00;;
11970;SDS011;6045;42.682;23.294;2022-08-11T00:11:37;6.22;;;5.72;;
11970;SDS011;6045;42.682;23.294;2022-08-11T00:14:12;5.43;;;5.00;;
11970;SDS011;6045;42.682;23.294;2022-08-11T00:16:42;6.57;;;5.50;;
11970;SDS011;6045;42.682;23.294;2022-08-11T00:19:20;6.05;;;5.32;;
11970;SDS011;6045;42.682;23.294;2022-08-11T00:21:48;6.65;;;5.95;;
11970;SDS011;6045;42.682;23.294;2022-08-11T00:24:15;5.78;;;5.13;;
11970;SDS011;6045;42.682;23.294;2022-08-11T00:26:46;6.10;;;5.30;;
11970;SDS011;6045;42.682;23.294;2022-08-11T00:29:14;6.60;;;5.22;;
11970;SDS011;6045;42.682;23.294;2022-08-11T00:31:44;5.75;;;5.25;;
11970;SDS011;6045;42.682;23.294;2022-08-11T00:34:17;5.63;;;5.13;;
11970;SDS011;6045;42.682;23.294;2022-08-11T00:36:46;5.97;;;5.43;;
11970;SDS011;6045;42.682;23.294;2022-08-11T00:39:16;5.65;;;5.15;;
11970;SDS011;6045;42.682;23.294;2022-08-11T00:41:49;5.68;;;5.18;;
11970;SDS011;6045;42.682;23.294;2022-08-11T00:44:44;6.07;;;5.30;;
11970;SDS011;6045;42.682;23.294;2022-08-11T00:47:33;5.75;;;5.32;;
11970;SDS011;6045;42.682;23.294;2022-08-11T00:50:08;6.00;;;5.47;;
11970;SDS011;6045;42.682;23.294;2022-08-11T00:53:02;6.10;;;5.30;;
11970;SDS011;6045;42.682;23.294;2022-08-11T00:55:42;5.70;;;5.10;;
11970;SDS011;6045;42.682;23.294;2022-08-11T01:01:56;5.38;;;4.88;;
11970;SDS011;6045;42.682;23.294;2022-08-11T01:07:41;5.50;;;4.90;;
11970;SDS011;6045;42.682;23.294;2022-08-11T01:10:51;5.85;;;5.35;;
11970;SDS011;6045;42.682;23.294;2022-08-11T01:13:43;5.65;;;5.22;;
11970;SDS011;6045;42.682;23.294;2022-08-11T01:16:51;5.68;;;5.10;;
11970;SDS011;6045;42.682;23.294;2022-08-11T01:22:58;5.72;;;5.22;;
11970;SDS011;6045;42.682;23.294;2022-08-11T01:25:54;5.28;;;4.78;;
11970;SDS011;6045;42.682;23.294;2022-08-11T01:29:03;5.88;;;5.38;;
11970;SDS011;6045;42.682;23.294;2022-08-11T01:32:01;5.68;;;5.18;;
11970;SDS011;6045;42.682;23.294;2022-08-11T01:38:00;5.30;;;4.80;;
11970;SDS011;6045;42.682;23.294;2022-08-11T01:40:55;5.15;;;4.75;;
11970;SDS011;6045;42.682;23.294;2022-08-11T01:43:51;5.57;;;5.05;;
11970;SDS011;6045;42.682;23.294;2022-08-11T01:46:56;5.53;;;5.03;;
11970;SDS011;6045;42.682;23.294;2022-08-11T01:49:57;6.13;;;5.55;;
11970;SDS011;6045;42.682;23.294;2022-08-11T01:52:38;6.50;;;5.15;;
11970;SDS011;6045;42.682;23.294;2022-08-11T01:55:17;6.00;;;5.43;;
11970;SDS011;6045;42.682;23.294;2022-08-11T01:57:52;5.80;;;5.22;;
11970;SDS011;6045;42.682;23.294;2022-08-11T02:00:30;5.97;;;5.47;;
11970;SDS011;6045;42.682;23.294;2022-08-11T02:03:10;6.47;;;5.88;;
11970;SDS011;6045;42.682;23.294;2022-08-11T02:05:46;5.72;;;5.15;;
11970;SDS011;6045;42.682;23.294;2022-08-11T02:08:54;7.03;;;5.72;;
11970;SDS011;6045;42.682;23.294;2022-08-11T02:11:31;6.75;;;6.15;;
11970;SDS011;6045;42.682;23.294;2022-08-11T02:13:59;5.85;;;5.40;;
11970;SDS011;6045;42.682;23.294;2022-08-11T02:16:41;6.25;;;5.65;;
11970;SDS011;6045;42.682;23.294;2022-08-11T02:19:22;6.10;;;5.60;;
11970;SDS011;6045;42.682;23.294;2022-08-11T02:22:22;5.90;;;5.35;;
11970;SDS011;6045;42.682;23.294;2022-08-11T02:25:17;6.35;;;5.75;;
11970;SDS011;6045;42.682;23.294;2022-08-11T02:27:54;6.97;;;5.60;;
11970;SDS011;6045;42.682;23.294;2022-08-11T02:30:30;6.07;;;5.57;;
11970;SDS011;6045;42.682;23.294;2022-08-11T02:33:07;6.50;;;5.80;;
11970;SDS011;6045;42.682;23.294;2022-08-11T02:35:54;6.20;;;5.70;;
11970;SDS011;6045;42.682;23.294;2022-08-11T02:38:27;6.03;;;5.53;;
11970;SDS011;6045;42.682;23.294;2022-08-11T02:41:04;5.95;;;5.40;;
11970;SDS011;6045;42.682;23.294;2022-08-11T02:43:55;6.30;;;5.80;;
11970;SDS011;6045;42.682;23.294;2022-08-11T02:46:36;6.30;;;5.70;;
11970;SDS011;6045;42.682;23.294;2022-08-11T02:49:17;6.78;;;5.68;;
11970;SDS011;6045;42.682;23.294;2022-08-11T02:52:19;6.15;;;5.65;;
11970;SDS011;6045;42.682;23.294;2022-08-11T02:54:56;7.57;;;5.35;;
11970;SDS011;6045;42.682;23.294;2022-08-11T02:57:46;7.03;;;5.78;;
11970;SDS011;6045;42.682;23.294;2022-08-11T03:00:20;6.70;;;6.10;;
11970;SDS011;6045;42.682;23.294;2022-08-11T03:02:56;6.90;;;6.30;;
11970;SDS011;6045;42.682;23.294;2022-08-11T03:05:37;6.75;;;6.03;;
11970;SDS011;6045;42.682;23.294;2022-08-11T03:08:19;6.32;;;5.82;;
11970;SDS011;6045;42.682;23.294;2022-08-11T03:10:59;7.45;;;6.75;;
11970;SDS011;6045;42.682;23.294;2022-08-11T03:13:48;8.35;;;6.63;;
11970;SDS011;6045;42.682;23.294;2022-08-11T03:16:45;8.40;;;6.60;;
11970;SDS011;6045;42.682;23.294;2022-08-11T03:19:25;6.68;;;5.97;;
11970;SDS011;6045;42.682;23.294;2022-08-11T03:22:04;7.38;;;6.68;;
11970;SDS011;6045;42.682;23.294;2022-08-11T03:24:43;7.10;;;6.50;;
11970;SDS011;6045;42.682;23.294;2022-08-11T03:27:27;7.10;;;6.40;;
11970;SDS011;6045;42.682;23.294;2022-08-11T03:30:05;6.82;;;6.15;;
11970;SDS011;6045;42.682;23.294;2022-08-11T03:32:41;6.90;;;6.22;;
11970;SDS011;6045;42.682;23.294;2022-08-11T03:35:31;7.00;;;6.30;;
11970;SDS011;6045;42.682;23.294;2022-08-11T03:38:07;6.55;;;5.95;;
11970;SDS011;6045;42.682;23.294;2022-08-11T03:40:41;6.65;;;6.05;;
11970;SDS011;6045;42.682;23.294;2022-08-11T03:43:45;6.45;;;5.82;;
11970;SDS011;6045;42.682;23.294;2022-08-11T03:46:24;7.82;;;6.43;;
11970;SDS011;6045;42.682;23.294;2022-08-11T03:49:21;6.65;;;6.05;;
11970;SDS011;6045;42.682;23.294;2022-08-11T03:51:54;6.68;;;6.07;;
11970;SDS011;6045;42.682;23.294;2022-08-11T03:54:31;6.93;;;6.28;;
11970;SDS011;6045;42.682;23.294;2022-08-11T03:57:25;6.03;;;5.43;;
11970;SDS011;6045;42.682;23.294;2022-08-11T04:00:20;6.18;;;5.43;;
11970;SDS011;6045;42.682;23.294;2022-08-11T04:03:14;6.60;;;5.97;;
11970;SDS011;6045;42.682;23.294;2022-08-11T04:06:12;6.18;;;5.57;;
11970;SDS011;6045;42.682;23.294;2022-08-11T04:09:03;6.47;;;5.65;;
11970;SDS011;6045;42.682;23.294;2022-08-11T04:15:01;6.07;;;5.47;;
11970;SDS011;6045;42.682;23.294;2022-08-11T04:24:14;6.07;;;5.57;;
11970;SDS011;6045;42.682;23.294;2022-08-11T04:27:14;9.60;;;8.18;;
11970;SDS011;6045;42.682;23.294;2022-08-11T04:30:03;6.82;;;6.20;;
11970;SDS011;6045;42.682;23.294;2022-08-11T04:32:38;6.70;;;6.00;;
11970;SDS011;6045;42.682;23.294;2022-08-11T04:35:25;6.78;;;6.07;;
11970;SDS011;6045;42.682;23.294;2022-08-11T04:38:21;6.28;;;5.65;;
11970;SDS011;6045;42.682;23.294;2022-08-11T04:44:39;5.68;;;5.18;;
11970;SDS011;6045;42.682;23.294;2022-08-11T04:47:34;6.53;;;5.93;;
11970;SDS011;6045;42.682;23.294;2022-08-11T04:50:45;6.85;;;6.25;;
11970;SDS011;6045;42.682;23.294;2022-08-11T04:53:55;6.57;;;5.47;;
11970;SDS011;6045;42.682;23.294;2022-08-11T04:56:47;6.60;;;5.97;;
11970;SDS011;6045;42.682;23.294;2022-08-11T04:59:48;9.27;;;6.90;;
11970;SDS011;6045;42.682;23.294;2022-08-11T05:12:05;7.50;;;6.03;;
11970;SDS011;6045;42.682;23.294;2022-08-11T05:14:46;8.50;;;6.47;;
11970;SDS011;6045;42.682;23.294;2022-08-11T05:17:37;7.57;;;6.28;;
11970;SDS011;6045;42.682;23.294;2022-08-11T05:20:24;9.50;;;6.22;;
11970;SDS011;6045;42.682;23.294;2022-08-11T05:23:09;6.63;;;5.57;;
11970;SDS011;6045;42.682;23.294;2022-08-11T05:25:56;9.10;;;5.10;;
11970;SDS011;6045;42.682;23.294;2022-08-11T05:28:45;7.20;;;6.03;;
11970;SDS011;6045;42.682;23.294;2022-08-11T05:31:38;6.78;;;6.18;;
11970;SDS011;6045;42.682;23.294;2022-08-11T05:34:27;6.85;;;5.80;;
11970;SDS011;6045;42.682;23.294;2022-08-11T05:37:18;6.55;;;5.82;;
11970;SDS011;6045;42.682;23.294;2022-08-11T05:39:52;6.43;;;5.55;;
11970;SDS011;6045;42.682;23.294;2022-08-11T05:42:41;7.13;;;5.63;;
11970;SDS011;6045;42.682;23.294;2022-08-11T05:45:31;8.43;;;6.05;;
11970;SDS011;6045;42.682;23.294;2022-08-11T05:48:19;7.43;;;5.40;;
11970;SDS011;6045;42.682;23.294;2022-08-11T05:51:03;6.32;;;5.70;;
11970;SDS011;6045;42.682;23.294;2022-08-11T05:53:51;5.88;;;5.32;;
11970;SDS011;6045;42.682;23.294;2022-08-11T05:56:42;6.32;;;5.55;;
11970;SDS011;6045;42.682;23.294;2022-08-11T05:59:13;6.30;;;5.47;;
11970;SDS011;6045;42.682;23.294;2022-08-11T06:01:42;7.03;;;5.65;;
11970;SDS011;6045;42.682;23.294;2022-08-11T06:04:14;7.50;;;5.93;;
11970;SDS011;6045;42.682;23.294;2022-08-11T06:06:51;7.07;;;5.38;;
11970;SDS011;6045;42.682;23.294;2022-08-11T06:09:24;6.13;;;5.53;;
11970;SDS011;6045;42.682;23.294;2022-08-11T06:11:54;5.90;;;5.40;;
11970;SDS011;6045;42.682;23.294;2022-08-11T06:14:24;6.72;;;6.03;;
11970;SDS011;6045;42.682;23.294;2022-08-11T06:16:53;6.25;;;5.75;;
11970;SDS011;6045;42.682;23.294;2022-08-11T06:19:29;8.30;;;5.00;;
11970;SDS011;6045;42.682;23.294;2022-08-11T06:21:58;5.97;;;5.47;;
11970;SDS011;6045;42.682;23.294;2022-08-11T06:24:30;9.23;;;5.78;;
11970;SDS011;6045;42.682;23.294;2022-08-11T06:27:07;6.85;;;5.28;;
11970;SDS011;6045;42.682;23.294;2022-08-11T06:29:35;6.50;;;5.30;;
11970;SDS011;6045;42.682;23.294;2022-08-11T06:32:06;8.15;;;7.43;;
11970;SDS011;6045;42.682;23.294;2022-08-11T06:34:39;8.32;;;6.05;;
11970;SDS011;6045;42.682;23.294;2022-08-11T06:37:21;5.95;;;5.35;;
11970;SDS011;6045;42.682;23.294;2022-08-11T06:39:57;6.22;;;5.72;;
11970;SDS011;6045;42.682;23.294;2022-08-11T06:42:35;6.15;;;5.65;;
11970;SDS011;6045;42.682;23.294;2022-08-11T06:45:19;7.97;;;5.85;;
11970;SDS011;6045;42.682;23.294;2022-08-11T06:47:52;7.38;;;5.55;;
11970;SDS011;6045;42.682;23.294;2022-08-11T06:50:21;6.00;;;5.18;;
11970;SDS011;6045;42.682;23.294;2022-08-11T06:53:07;5.32;;;4.90;;
11970;SDS011;6045;42.682;23.294;2022-08-11T06:55:37;5.63;;;5.13;;
11970;SDS011;6045;42.682;23.294;2022-08-11T06:58:26;5.03;;;4.53;;
11970;SDS011;6045;42.682;23.294;2022-08-11T07:01:28;5.65;;;4.45;;
11970;SDS011;6045;42.682;23.294;2022-08-11T07:04:04;5.68;;;4.82;;
11970;SDS011;6045;42.682;23.294;2022-08-11T07:06:40;4.80;;;4.40;;
11970;SDS011;6045;42.682;23.294;2022-08-11T07:09:49;5.32;;;4.60;;
11970;SDS011;6045;42.682;23.294;2022-08-11T07:12:56;4.85;;;4.40;;
11970;SDS011;6045;42.682;23.294;2022-08-11T07:15:42;5.20;;;4.43;;
11970;SDS011;6045;42.682;23.294;2022-08-11T07:18:16;4.82;;;4.32;;
11970;SDS011;6045;42.682;23.294;2022-08-11T07:21:11;4.43;;;4.13;;
11970;SDS011;6045;42.682;23.294;2022-08-11T07:24:01;4.85;;;4.38;;
11970;SDS011;6045;42.682;23.294;2022-08-11T07:26:52;5.18;;;4.47;;
11970;SDS011;6045;42.682;23.294;2022-08-11T07:29:38;5.55;;;5.05;;
11970;SDS011;6045;42.682;23.294;2022-08-11T07:32:13;5.35;;;4.85;;
11970;SDS011;6045;42.682;23.294;2022-08-11T07:34:44;5.43;;;4.90;;
11970;SDS011;6045;42.682;23.294;2022-08-11T07:37:15;5.68;;;4.25;;
11970;SDS011;6045;42.682;23.294;2022-08-11T07:39:46;5.30;;;4.80;;
11970;SDS011;6045;42.682;23.294;2022-08-11T07:42:15;6.07;;;5.40;;
11970;SDS011;6045;42.682;23.294;2022-08-11T07:44:47;4.72;;;4.32;;
11970;SDS011;6045;42.682;23.294;2022-08-11T07:47:32;5.32;;;4.93;;
11970;SDS011;6045;42.682;23.294;2022-08-11T07:50:19;4.88;;;4.43;;
11970;SDS011;6045;42.682;23.294;2022-08-11T07:53:04;4.05;;;3.63;;
11970;SDS011;6045;42.682;23.294;2022-08-11T07:55:33;5.20;;;4.70;;
11970;SDS011;6045;42.682;23.294;2022-08-11T07:58:02;5.57;;;4.88;;
11970;SDS011;6045;42.682;23.294;2022-08-11T08:00:48;4.40;;;4.10;;
11970;SDS011;6045;42.682;23.294;2022-08-11T08:03:37;4.70;;;4.30;;
11970;SDS011;6045;42.682;23.294;2022-08-11T08:06:22;5.00;;;4.55;;
11970;SDS011;6045;42.682;23.294;2022-08-11T08:09:08;4.28;;;3.88;;
11970;SDS011;6045;42.682;23.294;2022-08-11T08:11:55;4.72;;;4.18;;
11970;SDS011;6045;42.682;23.294;2022-08-11T08:14:40;4.72;;;4.32;;
11970;SDS011;6045;42.682;23.294;2022-08-11T08:17:25;5.55;;;4.13;;
11970;SDS011;6045;42.682;23.294;2022-08-11T08:20:11;3.90;;;3.60;;
11970;SDS011;6045;42.682;23.294;2022-08-11T08:22:40;4.28;;;3.97;;
11970;SDS011;6045;42.682;23.294;2022-08-11T08:25:08;5.10;;;4.15;;
11970;SDS011;6045;42.682;23.294;2022-08-11T08:27:37;5.15;;;4.05;;
11970;SDS011;6045;42.682;23.294;2022-08-11T08:30:07;4.22;;;3.92;;
11970;SDS011;6045;42.682;23.294;2022-08-11T08:32:53;4.93;;;4.30;;
11970;SDS011;6045;42.682;23.294;2022-08-11T08:35:22;4.50;;;4.10;;
11970;SDS011;6045;42.682;23.294;2022-08-11T08:37:49;4.93;;;3.75;;
11970;SDS011;6045;42.682;23.294;2022-08-11T08:40:16;4.68;;;4.28;;
11970;SDS011;6045;42.682;23.294;2022-08-11T08:42:46;4.18;;;3.88;;
11970;SDS011;6045;42.682;23.294;2022-08-11T08:45:19;3.92;;;3.63;;
11970;SDS011;6045;42.682;23.294;2022-08-11T08:47:47;5.35;;;4.30;;
11970;SDS011;6045;42.682;23.294;2022-08-11T08:50:20;4.60;;;4.00;;
11970;SDS011;6045;42.682;23.294;2022-08-11T08:53:09;3.80;;;3.50;;
11970;SDS011;6045;42.682;23.294;2022-08-11T08:55:36;4.00;;;3.70;;
11970;SDS011;6045;42.682;23.294;2022-08-11T08:58:06;4.47;;;4.07;;
11970;SDS011;6045;42.682;23.294;2022-08-11T09:00:37;4.72;;;3.83;;
11970;SDS011;6045;42.682;23.294;2022-08-11T09:03:06;5.00;;;4.47;;
11970;SDS011;6045;42.682;23.294;2022-08-11T09:05:33;4.18;;;3.88;;
11970;SDS011;6045;42.682;23.294;2022-08-11T09:08:01;4.45;;;4.05;;
11970;SDS011;6045;42.682;23.294;2022-08-11T09:10:28;4.60;;;4.20;;
11970;SDS011;6045;42.682;23.294;2022-08-11T09:12:57;4.47;;;4.05;;
11970;SDS011;6045;42.682;23.294;2022-08-11T09:15:26;4.78;;;4.38;;
11970;SDS011;6045;42.682;23.294;2022-08-11T09:17:55;4.53;;;4.22;;
11970;SDS011;6045;42.682;23.294;2022-08-11T09:20:27;5.57;;;4.35;;
11970;SDS011;6045;42.682;23.294;2022-08-11T09:22:58;3.67;;;3.38;;
11970;SDS011;6045;42.682;23.294;2022-08-11T09:25:46;4.50;;;3.65;;
11970;SDS011;6045;42.682;23.294;2022-08-11T09:28:33;4.53;;;4.13;;
11970;SDS011;6045;42.682;23.294;2022-08-11T09:31:03;4.97;;;4.35;;
11970;SDS011;6045;42.682;23.294;2022-08-11T09:33:32;4.15;;;3.75;;
11970;SDS011;6045;42.682;23.294;2022-08-11T09:36:00;4.05;;;3.72;;
11970;SDS011;6045;42.682;23.294;2022-08-11T09:38:48;3.90;;;3.60;;
11970;SDS011;6045;42.682;23.294;2022-08-11T09:41:39;4.20;;;3.90;;
11970;SDS011;6045;42.682;23.294;2022-08-11T09:44:08;6.07;;;5.47;;
11970;SDS011;6045;42.682;23.294;2022-08-11T09:46:55;4.22;;;3.83;;
11970;SDS011;6045;42.682;23.294;2022-08-11T09:49:23;4.05;;;3.75;;
11970;SDS011;6045;42.682;23.294;2022-08-11T09:51:51;4.38;;;3.97;;
11970;SDS011;6045;42.682;23.294;2022-08-11T09:54:19;4.40;;;4.00;;
11970;SDS011;6045;42.682;23.294;2022-08-11T09:56:47;6.15;;;5.55;;
11970;SDS011;6045;42.682;23.294;2022-08-11T09:59:35;7.32;;;6.63;;
11970;SDS011;6045;42.682;23.294;2022-08-11T10:02:03;5.07;;;4.63;;
11970;SDS011;6045;42.682;23.294;2022-08-11T10:04:34;4.88;;;4.40;;
11970;SDS011;6045;42.682;23.294;2022-08-11T10:07:05;4.45;;;4.05;;
11970;SDS011;6045;42.682;23.294;2022-08-11T10:09:35;5.53;;;5.03;;
11970;SDS011;6045;42.682;23.294;2022-08-11T10:12:05;5.30;;;4.78;;
11970;SDS011;6045;42.682;23.294;2022-08-11T10:14:36;6.15;;;4.60;;
11970;SDS011;6045;42.682;23.294;2022-08-11T10:17:28;5.38;;;4.90;;
11970;SDS011;6045;42.682;23.294;2022-08-11T10:19:57;6.53;;;4.47;;
11970;SDS011;6045;42.682;23.294;2022-08-11T10:22:27;4.93;;;4.43;;
11970;SDS011;6045;42.682;23.294;2022-08-11T10:25:12;5.35;;;4.85;;
11970;SDS011;6045;42.682;23.294;2022-08-11T10:27:56;5.70;;;5.20;;
11970;SDS011;6045;42.682;23.294;2022-08-11T10:30:24;6.22;;;5.63;;
11970;SDS011;6045;42.682;23.294;2022-08-11T10:33:12;4.72;;;4.28;;
11970;SDS011;6045;42.682;23.294;2022-08-11T10:35:57;4.72;;;4.38;;
11970;SDS011;6045;42.682;23.294;2022-08-11T10:38:25;4.65;;;4.25;;
11970;SDS011;6045;42.682;23.294;2022-08-11T10:40:53;5.22;;;4.68;;
11970;SDS011;6045;42.682;23.294;2022-08-11T10:43:35;4.93;;;4.40;;
11970;SDS011;6045;42.682;23.294;2022-08-11T10:48:52;4.20;;;3.80;;
11970;SDS011;6045;42.682;23.294;2022-08-11T10:51:21;4.22;;;3.83;;
11970;SDS011;6045;42.682;23.294;2022-08-11T10:54:07;4.60;;;4.10;;
11970;SDS011;6045;42.682;23.294;2022-08-11T10:56:52;6.18;;;3.90;;
11970;SDS011;6045;42.682;23.294;2022-08-11T10:59:37;4.20;;;3.80;;
11970;SDS011;6045;42.682;23.294;2022-08-11T11:02:06;4.28;;;3.85;;
11970;SDS011;6045;42.682;23.294;2022-08-11T11:04:41;3.70;;;3.40;;
11970;SDS011;6045;42.682;23.294;2022-08-11T11:07:20;4.30;;;3.88;;
11970;SDS011;6045;42.682;23.294;2022-08-11T11:09:51;4.18;;;3.40;;
11970;SDS011;6045;42.682;23.294;2022-08-11T11:12:22;4.22;;;3.90;;
11970;SDS011;6045;42.682;23.294;2022-08-11T11:15:08;4.00;;;3.60;;
11970;SDS011;6045;42.682;23.294;2022-08-11T11:17:55;4.95;;;4.55;;
11970;SDS011;6045;42.682;23.294;2022-08-11T11:20:32;5.10;;;4.10;;
11970;SDS011;6045;42.682;23.294;2022-08-11T11:23:06;6.82;;;4.10;;
11970;SDS011;6045;42.682;23.294;2022-08-11T11:29:10;4.55;;;4.15;;
11970;SDS011;6045;42.682;23.294;2022-08-11T11:32:08;3.92;;;3.63;;
11970;SDS011;6045;42.682;23.294;2022-08-11T11:35:01;5.78;;;4.35;;
11970;SDS011;6045;42.682;23.294;2022-08-11T11:37:40;4.53;;;4.13;;
11970;SDS011;6045;42.682;23.294;2022-08-11T11:40:12;4.13;;;3.78;;
11970;SDS011;6045;42.682;23.294;2022-08-11T11:42:41;4.68;;;4.28;;
11970;SDS011;6045;42.682;23.294;2022-08-11T11:45:11;4.57;;;4.18;;
11970;SDS011;6045;42.682;23.294;2022-08-11T11:47:42;4.30;;;4.00;;
11970;SDS011;6045;42.682;23.294;2022-08-11T11:50:26;4.78;;;4.38;;
11970;SDS011;6045;42.682;23.294;2022-08-11T11:52:57;5.43;;;4.97;;
11970;SDS011;6045;42.682;23.294;2022-08-11T11:55:27;13.60;;;10.05;;
11970;SDS011;6045;42.682;23.294;2022-08-11T11:57:55;5.72;;;5.22;;
11970;SDS011;6045;42.682;23.294;2022-08-11T12:00:42;5.78;;;5.20;;
11970;SDS011;6045;42.682;23.294;2022-08-11T12:03:27;4.47;;;4.05;;
11970;SDS011;6045;42.682;23.294;2022-08-11T12:05:54;5.95;;;4.90;;
11970;SDS011;6045;42.682;23.294;2022-08-11T12:08:24;5.00;;;4.53;;
11970;SDS011;6045;42.682;23.294;2022-08-11T12:10:52;4.82;;;4.40;;
11970;SDS011;6045;42.682;23.294;2022-08-11T12:13:36;4.90;;;4.50;;
11970;SDS011;6045;42.682;23.294;2022-08-11T12:16:07;4.65;;;4.25;;
11970;SDS011;6045;42.682;23.294;2022-08-11T12:18:36;4.60;;;4.20;;
11970;SDS011;6045;42.682;23.294;2022-08-11T12:21:04;4.90;;;4.50;;
11970;SDS011;6045;42.682;23.294;2022-08-11T12:23:34;4.30;;;4.00;;
11970;SDS011;6045;42.682;23.294;2022-08-11T12:26:21;4.53;;;3.88;;
11970;SDS011;6045;42.682;23.294;2022-08-11T12:29:18;4.78;;;4.38;;
11970;SDS011;6045;42.682;23.294;2022-08-11T12:31:51;5.50;;;4.40;;
11970;SDS011;6045;42.682;23.294;2022-08-11T12:34:19;4.63;;;4.18;;
11970;SDS011;6045;42.682;23.294;2022-08-11T12:36:49;4.47;;;4.07;;
11970;SDS011;6045;42.682;23.294;2022-08-11T12:39:21;4.15;;;3.78;;
11970;SDS011;6045;42.682;23.294;2022-08-11T12:42:12;4.15;;;3.83;;
11970;SDS011;6045;42.682;23.294;2022-08-11T12:44:58;4.80;;;4.30;;
11970;SDS011;6045;42.682;23.294;2022-08-11T12:47:45;3.67;;;3.38;;
11970;SDS011;6045;42.682;23.294;2022-08-11T12:50:33;3.78;;;3.47;;
11970;SDS011;6045;42.682;23.294;2022-08-11T12:53:18;4.10;;;3.55;;
11970;SDS011;6045;42.682;23.294;2022-08-11T12:55:51;4.05;;;3.70;;
11970;SDS011;6045;42.682;23.294;2022-08-11T12:58:37;5.57;;;4.07;;
11970;SDS011;6045;42.682;23.294;2022-08-11T13:01:07;3.25;;;3.05;;
11970;SDS011;6045;42.682;23.294;2022-08-11T13:03:51;4.05;;;3.65;;
11970;SDS011;6045;42.682;23.294;2022-08-11T13:06:36;4.15;;;3.85;;
11970;SDS011;6045;42.682;23.294;2022-08-11T13:09:05;3.65;;;3.35;;
11970;SDS011;6045;42.682;23.294;2022-08-11T13:11:34;4.00;;;3.70;;
11970;SDS011;6045;42.682;23.294;2022-08-11T13:14:20;3.88;;;3.58;;
11970;SDS011;6045;42.682;23.294;2022-08-11T13:16:48;3.85;;;3.47;;
11970;SDS011;6045;42.682;23.294;2022-08-11T13:19:32;6.38;;;3.45;;
11970;SDS011;6045;42.682;23.294;2022-08-11T13:22:00;4.45;;;3.85;;
11970;SDS011;6045;42.682;23.294;2022-08-11T13:24:31;3.60;;;3.30;;
11970;SDS011;6045;42.682;23.294;2022-08-11T13:27:00;4.15;;;3.40;;
11970;SDS011;6045;42.682;23.294;2022-08-11T13:29:28;4.53;;;3.38;;
11970;SDS011;6045;42.682;23.294;2022-08-11T13:31:55;3.58;;;3.20;;
11970;SDS011;6045;42.682;23.294;2022-08-11T13:34:24;3.47;;;3.17;;
11970;SDS011;6045;42.682;23.294;2022-08-11T13:36:53;3.38;;;3.08;;
11970;SDS011;6045;42.682;23.294;2022-08-11T13:39:22;3.70;;;3.40;;
11970;SDS011;6045;42.682;23.294;2022-08-11T13:41:51;3.40;;;3.10;;
11970;SDS011;6045;42.682;23.294;2022-08-11T13:44:22;3.58;;;3.28;;
11970;SDS011;6045;42.682;23.294;2022-08-11T13:46:52;3.58;;;3.28;;
11970;SDS011;6045;42.682;23.294;2022-08-11T13:49:21;3.80;;;3.50;;
11970;SDS011;6045;42.682;23.294;2022-08-11T13:51:51;3.50;;;3.20;;
11970;SDS011;6045;42.682;23.294;2022-08-11T13:54:20;3.22;;;2.92;;
11970;SDS011;6045;42.682;23.294;2022-08-11T13:56:49;3.70;;;3.30;;
11970;SDS011;6045;42.682;23.294;2022-08-11T13:59:19;3.95;;;3.55;;
11970;SDS011;6045;42.682;23.294;2022-08-11T14:01:49;3.60;;;2.85;;
11970;SDS011;6045;42.682;23.294;2022-08-11T14:04:22;3.25;;;3.03;;
11970;SDS011;6045;42.682;23.294;2022-08-11T14:06:53;3.10;;;2.80;;
11970;SDS011;6045;42.682;23.294;2022-08-11T14:09:24;2.72;;;2.53;;
11970;SDS011;6045;42.682;23.294;2022-08-11T14:11:55;3.65;;;3.10;;
11970;SDS011;6045;42.682;23.294;2022-08-11T14:14:44;3.80;;;3.42;;
11970;SDS011;6045;42.682;23.294;2022-08-11T14:17:14;4.57;;;3.00;;
11970;SDS011;6045;42.682;23.294;2022-08-11T14:19:44;3.17;;;2.92;;
11970;SDS011;6045;42.682;23.294;2022-08-11T14:22:16;3.50;;;3.20;;
11970;SDS011;6045;42.682;23.294;2022-08-11T14:24:44;4.72;;;4.25;;
11970;SDS011;6045;42.682;23.294;2022-08-11T14:27:14;4.30;;;3.15;;
11970;SDS011;6045;42.682;23.294;2022-08-11T14:29:44;4.20;;;3.03;;
11970;SDS011;6045;42.682;23.294;2022-08-11T14:32:12;4.13;;;3.72;;
11970;SDS011;6045;42.682;23.294;2022-08-11T14:34:40;3.47;;;3.17;;
11970;SDS011;6045;42.682;23.294;2022-08-11T14:37:11;4.65;;;4.20;;
11970;SDS011;6045;42.682;23.294;2022-08-11T14:39:40;3.90;;;3.38;;
11970;SDS011;6045;42.682;23.294;2022-08-11T14:42:09;4.20;;;3.80;;
11970;SDS011;6045;42.682;23.294;2022-08-11T14:44:59;3.90;;;3.60;;
11970;SDS011;6045;42.682;23.294;2022-08-11T14:48:03;4.68;;;3.90;;
11970;SDS011;6045;42.682;23.294;2022-08-11T14:50:34;4.45;;;4.05;;
11970;SDS011;6045;42.682;23.294;2022-08-11T14:53:02;4.40;;;4.00;;
11970;SDS011;6045;42.682;23.294;2022-08-11T14:55:34;4.57;;;4.07;;
11970;SDS011;6045;42.682;23.294;2022-08-11T14:58:20;5.38;;;4.28;;
11970;SDS011;6045;42.682;23.294;2022-08-11T15:00:51;4.75;;;4.35;;
11970;SDS011;6045;42.682;23.294;2022-08-11T15:03:20;5.20;;;4.00;;
11970;SDS011;6045;42.682;23.294;2022-08-11T15:05:48;3.67;;;3.45;;
11970;SDS011;6045;42.682;23.294;2022-08-11T15:08:17;4.22;;;3.83;;
11970;SDS011;6045;42.682;23.294;2022-08-11T15:11:05;3.65;;;3.45;;
11970;SDS011;6045;42.682;23.294;2022-08-11T15:13:54;4.35;;;3.95;;
11970;SDS011;6045;42.682;23.294;2022-08-11T15:16:23;4.40;;;4.10;;
11970;SDS011;6045;42.682;23.294;2022-08-11T15:19:08;4.25;;;3.85;;
11970;SDS011;6045;42.682;23.294;2022-08-11T15:21:36;3.80;;;3.50;;
11970;SDS011;6045;42.682;23.294;2022-08-11T15:24:20;5.10;;;4.60;;
11970;SDS011;6045;42.682;23.294;2022-08-11T15:26:48;5.40;;;4.90;;
11970;SDS011;6045;42.682;23.294;2022-08-11T15:29:33;4.57;;;4.18;;
11970;SDS011;6045;42.682;23.294;2022-08-11T15:32:22;4.80;;;4.40;;
11970;SDS011;6045;42.682;23.294;2022-08-11T15:35:07;4.63;;;4.15;;
11970;SDS011;6045;42.682;23.294;2022-08-11T15:37:54;3.97;;;3.67;;
11970;SDS011;6045;42.682;23.294;2022-08-11T15:40:24;4.82;;;3.55;;
11970;SDS011;6045;42.682;23.294;2022-08-11T15:43:13;4.95;;;4.45;;
11970;SDS011;6045;42.682;23.294;2022-08-11T15:46:07;7.78;;;6.93;;
11970;SDS011;6045;42.682;23.294;2022-08-11T15:48:42;4.07;;;3.78;;
11970;SDS011;6045;42.682;23.294;2022-08-11T15:51:15;3.92;;;3.60;;
11970;SDS011;6045;42.682;23.294;2022-08-11T15:53:47;4.28;;;3.88;;
11970;SDS011;6045;42.682;23.294;2022-08-11T15:56:17;4.43;;;3.88;;
11970;SDS011;6045;42.682;23.294;2022-08-11T15:58:46;4.53;;;3.60;;
11970;SDS011;6045;42.682;23.294;2022-08-11T16:01:33;8.38;;;7.07;;
11970;SDS011;6045;42.682;23.294;2022-08-11T16:04:22;4.80;;;4.28;;
11970;SDS011;6045;42.682;23.294;2022-08-11T16:06:52;4.15;;;3.75;;
11970;SDS011;6045;42.682;23.294;2022-08-11T16:09:25;3.63;;;3.28;;
11970;SDS011;6045;42.682;23.294;2022-08-11T16:11:56;3.63;;;3.30;;
11970;SDS011;6045;42.682;23.294;2022-08-11T16:14:28;4.30;;;3.90;;
11970;SDS011;6045;42.682;23.294;2022-08-11T16:17:16;3.97;;;3.65;;
11970;SDS011;6045;42.682;23.294;2022-08-11T16:19:47;4.45;;;4.05;;
11970;SDS011;6045;42.682;23.294;2022-08-11T16:22:19;4.38;;;3.97;;
11970;SDS011;6045;42.682;23.294;2022-08-11T16:24:54;5.53;;;3.85;;
11970;SDS011;6045;42.682;23.294;2022-08-11T16:27:22;6.03;;;3.88;;
11970;SDS011;6045;42.682;23.294;2022-08-11T16:29:50;8.40;;;4.70;;
11970;SDS011;6045;42.682;23.294;2022-08-11T16:32:20;4.80;;;3.58;;
11970;SDS011;6045;42.682;23.294;2022-08-11T16:34:54;4.78;;;3.80;;
11970;SDS011;6045;42.682;23.294;2022-08-11T16:37:40;4.70;;;3.72;;
11970;SDS011;6045;42.682;23.294;2022-08-11T16:40:26;4.55;;;3.58;;